Sarasota, Florida
Current Conditions -  °F | °C
As of 4:53 PM on Wednesday 28 Jan 2015 (Local Time) from KSRQ Reporting Station
Clear Clear  
Wind Chill: 16°   Ceiling: Unl
Heat Index: 16°   Visibility: 10mi
Dew Point:   Wind: 7mph
Humidity: 35%   Direction: 360°N
Pressure: 30.17"   Gusts: NA
Location:  27.34°N, 82.54°W
Report Text: KSRQ 282153Z AUTO 36006KT 10SM CLR 16/01 A3017 RMK AO2 SLP216 T01610006
Loading
Personal Weather Stations






























Interactive Weather Map New forecast layout! Learn more

10-Day Weather Forecast

Advertisements
Track Severe Weather on mobile